Amarillo, TX (79101)

03:08 AM CDT die 29o May, anno 2015 (GMT -0500)
Oliver-Eakle | | Change Station
CLOSE
Current Station
Personal Weather Stations
Location: Amarillo, TX
Elevation: 3678 ft
Nearby Weather Stations

Elev 3678 ft 35.19 °N, 101.84 °W | Updated 9 seconds ago

Serena
Serena
56.6 °F
Feels Like 56.6 °F
N
1.0
Ventus Variabilis Ventus from Inter Austrum et Eurum
Gusts 4.6 mph

Hodie
High -- | Low -- °F
--% Chance of Precip.
Yesterday
High -- | Low -- °F
Precip. -- in
6:35 AM 8:54 PM
Waxing Gibbous, 82% visible
Pressio 29.88 in
Visibilitas 10.0 milia passuum
Clouds Few 3900 ft
Plerumque Nubila 11000 ft
Frigus in quo Ros apparet 52 °F
Umor 84%
Rainfall 0.00 in
Snow Depth Not available.
UV 0 out of 12
Pollen 6.30 out of 12
Air Quality Not available.
Flu Activity Sporadic
METAR KAMA 290753Z AUTO 13012KT 10SM FEW039 BKN110 13/12 A2997 RMK AO2 LTG DSNT NW RAB38E53 SLP117 P0000 T01330117

More Conditions Fewer Conditions

Pressio 29.88 in
Visibilitas 10.0 milia passuum
Clouds Few 3900 ft
Plerumque Nubila 11000 ft
Frigus in quo Ros apparet 52 °F
Umor 84%
Rainfall 0.00 in
Snow Depth Not available.
UV 0 out of 12
Pollen 6.30 out of 12
Air Quality Not available.
Flu Activity Sporadic
METAR KAMA 290753Z AUTO 13012KT 10SM FEW039 BKN110 13/12 A2997 RMK AO2 LTG DSNT NW RAB38E53 SLP117 P0000 T01330117

More Conditions Fewer Conditions

10-Day Weather Forecast

Almanac

Astronomy

May. 29, 2015 Rise Set
Actual Time
Civil Twilight
Nautical Twilight
Astronomical Twilight
Moon
Length Of Visible Light
Length of Day
Tomorrow will be .
, % of the Moon is Illuminated

Today's Extremes

State Highs State Lows

Community

WunderPhotos

Upload Photos

1,825,221 photos uploaded!

WunderBlogs® & News

Nearby

Air Quality

  Air Quality AQ Index Pollutant
Not available.

Snow Depth

Station Depth Elevation

Earthquake Activity

City Distance Mag. Time & Date
Minimum magnitude displayed is 2.5.

Coastal Water Temperatures

Locus Calor

Stations

Nearby Weather Stations

Station Location Temp Frigus Venti Frigus in quo Ros apparet Umor Ventus Precip. Elev Renovata Type